EZY38LT EGGW-LPPR
Flight info
| Callsign | EZY38LT |
|---|---|
| Flight time | N/A |
| Altitude | 35000 |
| Route | RODNI N27 ICTAM Q63 CPT Y321 PEPIS Q41 SAM M195 LORKU DCT LOTEE/N0454F370 DCT ELTEP/N0388F230 T328 ASPOR |
| Aircraft | A320/M-SDE3FGHIRWY/LB1 |
Departure
| Time | N/A |
|---|---|
| Airport | London Luton Airport (EGGW) |
Arrival
| Time | 2026-05-03 21:04 |
|---|---|
| Airport | Francisco de Sá Carneiro Airport (LPPR) |
| Time | Latitude | Longitude | Altitude | Speed | Heading |
|---|---|---|---|---|---|
| 2026-05-03 20:15 | 45.17262 | -5.53100 | 34995 ft | 411 kts | 204° |
| 2026-05-03 20:15 | 45.11996 | -5.56255 | 34996 ft | 411 kts | 204° |
| 2026-05-03 20:16 | 45.06730 | -5.59409 | 34997 ft | 411 kts | 204° |
| 2026-05-03 20:16 | 45.01498 | -5.62542 | 34994 ft | 410 kts | 205° |
| 2026-05-03 20:17 | 44.96243 | -5.65679 | 35002 ft | 410 kts | 204° |
| 2026-05-03 20:17 | 44.90989 | -5.68801 | 35003 ft | 409 kts | 204° |
| 2026-05-03 20:18 | 44.85741 | -5.71918 | 35010 ft | 409 kts | 204° |
| 2026-05-03 20:18 | 44.80488 | -5.75032 | 34992 ft | 410 kts | 204° |
| 2026-05-03 20:19 | 44.75235 | -5.78148 | 34994 ft | 410 kts | 204° |
| 2026-05-03 20:19 | 44.70825 | -5.80756 | 34996 ft | 410 kts | 204° |
| 2026-05-03 20:20 | 44.65657 | -5.84010 | 35002 ft | 409 kts | 212° |
| 2026-05-03 20:20 | 44.60977 | -5.88535 | 35007 ft | 408 kts | 216° |
| 2026-05-03 20:21 | 44.56339 | -5.93145 | 35011 ft | 408 kts | 216° |
| 2026-05-03 20:21 | 44.51694 | -5.97748 | 35010 ft | 408 kts | 216° |
| 2026-05-03 20:22 | 44.47048 | -6.02334 | 35009 ft | 408 kts | 216° |
| 2026-05-03 20:22 | 44.42424 | -6.06879 | 35003 ft | 408 kts | 216° |
| 2026-05-03 20:23 | 44.37763 | -6.11458 | 35202 ft | 413 kts | 216° |
| 2026-05-03 20:23 | 44.35407 | -6.13771 | 35373 ft | 414 kts | 216° |
| 2026-05-03 20:23 | 44.33048 | -6.16086 | 35570 ft | 415 kts | 216° |
| 2026-05-03 20:23 | 44.30678 | -6.18413 | 35772 ft | 416 kts | 216° |
| 2026-05-03 20:24 | 44.28309 | -6.20736 | 35966 ft | 417 kts | 216° |
| 2026-05-03 20:24 | 44.25935 | -6.23063 | 36155 ft | 417 kts | 216° |
| 2026-05-03 20:24 | 44.23558 | -6.25392 | 36344 ft | 418 kts | 216° |
| 2026-05-03 20:24 | 44.21176 | -6.27719 | 36543 ft | 418 kts | 216° |
| 2026-05-03 20:25 | 44.18790 | -6.30043 | 36731 ft | 419 kts | 216° |
| 2026-05-03 20:25 | 44.16404 | -6.32368 | 36915 ft | 419 kts | 216° |
| 2026-05-03 20:25 | 44.14008 | -6.34703 | 37011 ft | 420 kts | 216° |
| 2026-05-03 20:26 | 44.09211 | -6.39357 | 37020 ft | 421 kts | 216° |
| 2026-05-03 20:26 | 44.04404 | -6.44011 | 37004 ft | 420 kts | 216° |
| 2026-05-03 20:27 | 43.99608 | -6.48652 | 37018 ft | 421 kts | 216° |
| 2026-05-03 20:27 | 43.94799 | -6.53297 | 37022 ft | 421 kts | 216° |
| 2026-05-03 20:28 | 43.89985 | -6.57933 | 37023 ft | 421 kts | 216° |
| 2026-05-03 20:28 | 43.85172 | -6.62574 | 37027 ft | 422 kts | 216° |
| 2026-05-03 20:29 | 43.80353 | -6.67210 | 37021 ft | 421 kts | 216° |
| 2026-05-03 20:29 | 43.75558 | -6.71805 | 37031 ft | 421 kts | 216° |
| 2026-05-03 20:30 | 43.70745 | -6.76402 | 37036 ft | 421 kts | 216° |
| 2026-05-03 20:30 | 43.65927 | -6.81000 | 37038 ft | 420 kts | 216° |
| 2026-05-03 20:31 | 43.61116 | -6.85585 | 37044 ft | 420 kts | 216° |
| 2026-05-03 20:31 | 43.56306 | -6.90160 | 37041 ft | 420 kts | 216° |
| 2026-05-03 20:32 | 43.51483 | -6.94733 | 37041 ft | 420 kts | 216° |
| 2026-05-03 20:32 | 43.46659 | -6.99296 | 37042 ft | 421 kts | 216° |
| 2026-05-03 20:33 | 43.41836 | -7.03851 | 37041 ft | 421 kts | 216° |
| 2026-05-03 20:33 | 43.37048 | -7.08374 | 37033 ft | 420 kts | 216° |
| 2026-05-03 20:34 | 43.32224 | -7.12917 | 37042 ft | 420 kts | 216° |
| 2026-05-03 20:34 | 43.27407 | -7.17444 | 37046 ft | 419 kts | 216° |
| 2026-05-03 20:35 | 43.22587 | -7.21954 | 37053 ft | 419 kts | 216° |
| 2026-05-03 20:35 | 43.17772 | -7.26461 | 37030 ft | 420 kts | 216° |
| 2026-05-03 20:36 | 43.12947 | -7.30967 | 37031 ft | 420 kts | 216° |
| 2026-05-03 20:36 | 43.08119 | -7.35468 | 37035 ft | 420 kts | 216° |
| 2026-05-03 20:37 | 43.03282 | -7.39974 | 37041 ft | 420 kts | 216° |
| 2026-05-03 20:37 | 42.98446 | -7.44464 | 37025 ft | 420 kts | 216° |
| 2026-05-03 20:38 | 42.93638 | -7.48906 | 37038 ft | 420 kts | 216° |
| 2026-05-03 20:38 | 42.88805 | -7.53378 | 37043 ft | 419 kts | 216° |
| 2026-05-03 20:39 | 42.83972 | -7.57844 | 37044 ft | 419 kts | 216° |
| 2026-05-03 20:39 | 42.79140 | -7.62297 | 37048 ft | 420 kts | 216° |
| 2026-05-03 20:40 | 42.74294 | -7.66755 | 37019 ft | 420 kts | 216° |
| 2026-05-03 20:40 | 42.69454 | -7.71201 | 37028 ft | 420 kts | 216° |
| 2026-05-03 20:41 | 42.64600 | -7.75650 | 37031 ft | 421 kts | 216° |
| 2026-05-03 20:41 | 42.59367 | -7.79226 | 37036 ft | 426 kts | 199° |
| 2026-05-03 20:42 | 42.53644 | -7.81373 | 37037 ft | 427 kts | 199° |
| 2026-05-03 20:42 | 42.47913 | -7.83513 | 37037 ft | 427 kts | 199° |
| 2026-05-03 20:43 | 42.42183 | -7.85654 | 37039 ft | 427 kts | 199° |
| 2026-05-03 20:43 | 42.36451 | -7.87799 | 37041 ft | 427 kts | 199° |
| 2026-05-03 20:44 | 42.30718 | -7.89937 | 37034 ft | 427 kts | 199° |
| 2026-05-03 20:44 | 42.24991 | -7.92074 | 37042 ft | 427 kts | 199° |
| 2026-05-03 20:45 | 42.19256 | -7.94200 | 37047 ft | 427 kts | 199° |
| 2026-05-03 20:45 | 42.13568 | -7.96304 | 37046 ft | 427 kts | 199° |
| 2026-05-03 20:45 | 42.10708 | -7.97364 | 36929 ft | 427 kts | 199° |
| 2026-05-03 20:46 | 42.07833 | -7.98426 | 36293 ft | 428 kts | 199° |
| 2026-05-03 20:46 | 42.04955 | -7.99489 | 35539 ft | 430 kts | 199° |
| 2026-05-03 20:46 | 42.02066 | -8.00557 | 34760 ft | 432 kts | 199° |
| 2026-05-03 20:46 | 41.99156 | -8.01632 | 33914 ft | 435 kts | 199° |
| 2026-05-03 20:47 | 41.96224 | -8.02714 | 33077 ft | 435 kts | 199° |
| 2026-05-03 20:47 | 41.93327 | -8.03780 | 32547 ft | 428 kts | 199° |
| 2026-05-03 20:47 | 41.90467 | -8.04833 | 31972 ft | 423 kts | 199° |
| 2026-05-03 20:47 | 41.87643 | -8.05874 | 31445 ft | 417 kts | 199° |
| 2026-05-03 20:48 | 41.84861 | -8.06891 | 30913 ft | 411 kts | 199° |
| 2026-05-03 20:48 | 41.82144 | -8.07966 | 30404 ft | 403 kts | 204° |
| 2026-05-03 20:48 | 41.79641 | -8.09537 | 29854 ft | 394 kts | 212° |
| 2026-05-03 20:48 | 41.77267 | -8.11300 | 29245 ft | 384 kts | 212° |
| 2026-05-03 20:49 | 41.74965 | -8.13012 | 28660 ft | 375 kts | 212° |
| 2026-05-03 20:49 | 41.72701 | -8.14700 | 28083 ft | 370 kts | 212° |
| 2026-05-03 20:49 | 41.70441 | -8.16327 | 27520 ft | 368 kts | 207° |
| 2026-05-03 20:49 | 41.68040 | -8.17515 | 26949 ft | 366 kts | 202° |
| 2026-05-03 20:50 | 41.65638 | -8.18615 | 25936 ft | 365 kts | 202° |
| 2026-05-03 20:50 | 41.63264 | -8.19701 | 25151 ft | 358 kts | 202° |
| 2026-05-03 20:50 | 41.60909 | -8.20776 | 24314 ft | 360 kts | 202° |
| 2026-05-03 20:50 | 41.58518 | -8.21873 | 23465 ft | 367 kts | 202° |
| 2026-05-03 20:51 | 41.56080 | -8.22991 | 22492 ft | 373 kts | 201° |
| 2026-05-03 20:51 | 41.53609 | -8.24123 | 21552 ft | 378 kts | 201° |
| 2026-05-03 20:51 | 41.51107 | -8.25266 | 20639 ft | 381 kts | 201° |
| 2026-05-03 20:51 | 41.48630 | -8.26393 | 19758 ft | 371 kts | 201° |
| 2026-05-03 20:52 | 41.46218 | -8.27488 | 18890 ft | 362 kts | 201° |
| 2026-05-03 20:52 | 41.43884 | -8.28546 | 18025 ft | 355 kts | 201° |
| 2026-05-03 20:52 | 41.41534 | -8.29616 | 17072 ft | 350 kts | 201° |
| 2026-05-03 20:52 | 41.39277 | -8.30642 | 16171 ft | 345 kts | 201° |
| 2026-05-03 20:53 | 41.37016 | -8.31666 | 15288 ft | 341 kts | 201° |
| 2026-05-03 20:53 | 41.34782 | -8.32680 | 14426 ft | 338 kts | 201° |
| 2026-05-03 20:53 | 41.32564 | -8.33688 | 13548 ft | 335 kts | 200° |
| 2026-05-03 20:53 | 41.30366 | -8.34687 | 12634 ft | 332 kts | 201° |
| 2026-05-03 20:54 | 41.28188 | -8.35678 | 11787 ft | 328 kts | 201° |
| 2026-05-03 20:54 | 41.24008 | -8.37568 | 11214 ft | 311 kts | 201° |
| 2026-05-03 20:54 | 41.21962 | -8.38490 | 10956 ft | 307 kts | 201° |
| 2026-05-03 20:55 | 41.19951 | -8.39394 | 10588 ft | 304 kts | 201° |
| 2026-05-03 20:55 | 41.17956 | -8.40290 | 10302 ft | 299 kts | 201° |
| 2026-05-03 20:55 | 41.16027 | -8.41155 | 10031 ft | 286 kts | 201° |
| 2026-05-03 20:55 | 41.14167 | -8.41991 | 9748 ft | 280 kts | 202° |
| 2026-05-03 20:56 | 41.12315 | -8.42827 | 9621 ft | 282 kts | 202° |
| 2026-05-03 20:56 | 41.10457 | -8.43669 | 9330 ft | 281 kts | 202° |
| 2026-05-03 20:56 | 41.08614 | -8.44503 | 8941 ft | 279 kts | 201° |
| 2026-05-03 20:56 | 41.06778 | -8.45330 | 8553 ft | 278 kts | 201° |
| 2026-05-03 20:57 | 41.04945 | -8.46153 | 8160 ft | 277 kts | 201° |
| 2026-05-03 20:57 | 41.03148 | -8.46961 | 7782 ft | 275 kts | 202° |
| 2026-05-03 20:57 | 41.01477 | -8.48170 | 7404 ft | 269 kts | 223° |
| 2026-05-03 20:57 | 41.00306 | -8.50046 | 7028 ft | 263 kts | 244° |
| 2026-05-03 20:58 | 40.99723 | -8.52283 | 6626 ft | 259 kts | 261° |
| 2026-05-03 20:58 | 40.99378 | -8.54621 | 6208 ft | 258 kts | 261° |
| 2026-05-03 20:58 | 40.99032 | -8.56951 | 5823 ft | 257 kts | 261° |
| 2026-05-03 20:58 | 40.98907 | -8.59277 | 5437 ft | 252 kts | 284° |
| 2026-05-03 20:59 | 40.99750 | -8.61232 | 5066 ft | 247 kts | 320° |
| 2026-05-03 20:59 | 41.01282 | -8.62181 | 4703 ft | 243 kts | 343° |
| 2026-05-03 20:59 | 41.02892 | -8.62658 | 4356 ft | 231 kts | 348° |
| 2026-05-03 20:59 | 41.04448 | -8.63014 | 4023 ft | 223 kts | 349° |
| 2026-05-03 21:00 | 41.05974 | -8.63352 | 3729 ft | 223 kts | 349° |
| 2026-05-03 21:00 | 41.06490 | -8.63469 | 3620 ft | 223 kts | 349° |
| 2026-05-03 21:00 | 41.08995 | -8.64056 | 3078 ft | 212 kts | 348° |
| 2026-05-03 21:00 | 41.10391 | -8.64394 | 2816 ft | 196 kts | 348° |
| 2026-05-03 21:01 | 41.11679 | -8.64714 | 2555 ft | 181 kts | 348° |
| 2026-05-03 21:01 | 41.12871 | -8.65016 | 2325 ft | 167 kts | 348° |
| 2026-05-03 21:01 | 41.13972 | -8.65298 | 2103 ft | 156 kts | 348° |
| 2026-05-03 21:01 | 41.15006 | -8.65565 | 1898 ft | 148 kts | 347° |
| 2026-05-03 21:02 | 41.16003 | -8.65821 | 1707 ft | 144 kts | 347° |
| 2026-05-03 21:02 | 41.16984 | -8.66074 | 1508 ft | 144 kts | 348° |
| 2026-05-03 21:02 | 41.17966 | -8.66328 | 1317 ft | 144 kts | 347° |
| 2026-05-03 21:02 | 41.18930 | -8.66596 | 1112 ft | 142 kts | 348° |
| 2026-05-03 21:03 | 41.19893 | -8.66857 | 958 ft | 142 kts | 348° |
| 2026-05-03 21:03 | 41.20866 | -8.67100 | 773 ft | 142 kts | 348° |
| 2026-05-03 21:03 | 41.21834 | -8.67341 | 565 ft | 141 kts | 348° |
| 2026-05-03 21:03 | 41.22801 | -8.67602 | 390 ft | 142 kts | 348° |
| 2026-05-03 21:04 | 41.23768 | -8.67853 | 242 ft | 138 kts | 348° |
| 2026-05-03 21:04 | 41.24593 | -8.68069 | 210 ft | 88 kts | 348° |
| 2026-05-03 21:04 | 41.24911 | -8.68154 | 194 ft | 21 kts | 349° |
| 2026-05-03 21:04 | 41.25072 | -8.68186 | 198 ft | 23 kts | 357° |
| 2026-05-03 21:05 | 41.25181 | -8.68151 | 183 ft | 26 kts | 17° |
| 2026-05-03 21:05 | 41.25292 | -8.68063 | 180 ft | 12 kts | 84° |
| 2026-05-03 21:05 | 41.25251 | -8.68011 | 183 ft | 7 kts | 167° |
| 2026-05-03 21:05 | 41.25228 | -8.68004 | 198 ft | 5 kts | 168° |
| 2026-05-03 21:06 | 41.25155 | -8.67985 | 194 ft | 14 kts | 168° |
| 2026-05-03 21:06 | 41.25063 | -8.67962 | 191 ft | 12 kts | 169° |
| 2026-05-03 21:06 | 41.24989 | -8.67942 | 196 ft | 12 kts | 168° |
| 2026-05-03 21:06 | 41.24894 | -8.67914 | 206 ft | 15 kts | 163° |
| 2026-05-03 21:07 | 41.24791 | -8.67846 | 206 ft | 18 kts | 157° |
| 2026-05-03 21:07 | 41.24662 | -8.67800 | 211 ft | 21 kts | 169° |
| 2026-05-03 21:07 | 41.24511 | -8.67763 | 219 ft | 24 kts | 169° |
| 2026-05-03 21:07 | 41.24346 | -8.67717 | 228 ft | 21 kts | 167° |
| 2026-05-03 21:08 | 41.24247 | -8.67608 | 237 ft | 16 kts | 130° |
| 2026-05-03 21:08 | 41.24116 | -8.67552 | 238 ft | 24 kts | 169° |
| 2026-05-03 21:08 | 41.23944 | -8.67508 | 238 ft | 26 kts | 168° |
| 2026-05-03 21:08 | 41.23763 | -8.67462 | 238 ft | 27 kts | 170° |
| 2026-05-03 21:09 | 41.23571 | -8.67409 | 238 ft | 26 kts | 168° |
| 2026-05-03 21:09 | 41.23433 | -8.67373 | 240 ft | 10 kts | 170° |
| 2026-05-03 21:09 | 41.23377 | -8.67339 | 240 ft | 7 kts | 136° |
| 2026-05-03 21:09 | 41.23368 | -8.67298 | 242 ft | 2 kts | 101° |
| 2026-05-03 21:10 | 41.23369 | -8.67276 | 243 ft | 7 kts | 77° |
| 2026-05-03 21:10 | 41.23395 | -8.67227 | 245 ft | 5 kts | 49° |
| 2026-05-03 21:10 | 41.23410 | -8.67204 | 245 ft | 2 kts | 51° |
| 2026-05-03 21:10 | 41.23417 | -8.67192 | 245 ft | 0 kts | 50° |